This is the latest recevied weather packets stored in our database for station/object OE3CJB-13. If no packets are shown the sender has not sent any weather packets the latest 10 day(s).
| Time | Temp. | Humidity | Pressure | Rain* | Wind** | Luminosity | Snow |
|---|---|---|---|---|---|---|---|
| 1777002316 | 6.67° C | 43% | 713.3 hPa | 0 mm | - | - | - |
| 1777001452 | 6.67° C | 45% | 714.2 hPa | 0 mm | - | - | - |
| 1777000540 | 6.67° C | 45% | 715 hPa | 0 mm | - | - | - |
| 1776999631 | 6.67° C | 46% | 714.9 hPa | 0 mm | - | - | - |
| 1776998716 | 6.11° C | 48% | 718.1 hPa | 0 mm | - | - | - |
| 1776997852 | 5.56° C | 51% | 718.1 hPa | 0 mm | - | - | - |
| 1776996940 | 5.56° C | 52% | 719.7 hPa | 0 mm | - | - | - |
| 1776996031 | 5.56° C | 52% | 721.3 hPa | 0 mm | - | - | - |
| 1776995116 | 5.56° C | 51% | 723.6 hPa | 0 mm | - | - | - |
| 1776994300 | 5.56° C | 49% | 725.2 hPa | 0 mm | - | - | - |
| 1776993340 | 6.11° C | 46% | 726.8 hPa | 0 mm | - | - | - |
| 1776992431 | 6.11° C | 45% | 728.5 hPa | 0 mm | - | - | - |
| 1776991742 | 6.11° C | 44% | 729.1 hPa | 0 mm | - | - | - |
| 1776990844 | 6.67° C | 43% | 731.5 hPa | 0 mm | - | - | - |
| 1776989740 | 7.22° C | 41% | 732.4 hPa | 0 mm | - | - | - |
| 1776988831 | 7.22° C | 40% | 731.5 hPa | 0 mm | - | - | - |
| 1776987916 | 7.22° C | 39% | 732.3 hPa | 0 mm | - | - | - |
| 1776987052 | 7.78° C | 37% | 732.3 hPa | 0 mm | - | - | - |
| 1776986140 | 7.78° C | 35% | 731.5 hPa | 0 mm | - | - | - |
| 1776985278 | 8.33° C | 33% | 732.3 hPa | 0 mm | - | - | - |
| 1776984316 | 8.89° C | 30% | 732.4 hPa | 0 mm | - | - | - |
| 1776983452 | 10° C | 26% | 733.1 hPa | 0 mm | - | - | - |
| 1776982540 | 10.56° C | 23% | 733 hPa | 0 mm | - | - | - |
| 1776981630 | 10.56° C | 22% | 732.3 hPa | 0 mm | - | - | - |
| 1776980716 | 11.11° C | 20% | 733 hPa | 0 mm | - | - | - |
* Rain latest hour (hover to see other rain measurements)
** Current wind speed in m/s (hover to see current wind gust speed)